aviador You're here:

YPAD Decoded Metar

ADELAIDE in AUSTRALIA
Report Time2018-06-18 19:00:00
UTC Time2018-06-18 19:16:10
Flight Rules mvfr MVFR
Wind030° at 07 kt
W.Decomp.*RWY 05: 6.2 kt HW 3.3 kt LCW
RWY 30: 1.0 kt HW 6.9 kt RCW
W.Rank030° ranks 4
Current wind is below 030° avg. (8.8)
Visibility9999 m
Phenomena:N/A
Clouds:Broken 026 Hf
Expected CloudBase > 2,000 ft AGL from Temp-Dew spread
Ceiling2,600 ft
Temp09°C (ISA -6)
Dew Point04°C (71% RH)
AAT5.2°C
QNH1027 hPa
Density Alt-1,066 ft
Elevation13 ft
Report Wrong Elevation
Raw Report
METAR YPAD 181900Z 03007KT 9999 BKN026 09/04 Q1027
NOSIG=

Extra information for YPAD:More info

Metar Taf Metar & Taf Last 4 Metars F.Rules Stats Wind Profile Meteogram Temp Stats Airport Information Weather charts Add Link Nearby VenuesMetar ALERT Operation Metar Decoded Social comments

Adelaide Airport Webcam